Time;durP1;ratioP1;P1;durP2;ratioP2;P2;SDS_P1;SDS_P2;PMS_P1;PMS_P2;Temp;Humidity;BMP_temperature;BMP_pressure;BME280_temperature;BME280_humidity;BME280_pressure;Samples;Min_cycle;Max_cycle;Signal;HPM_P1;HPM_P2
2022/12/18 05:00:12;;;;;;;2.15;2.05;;;-5.80;99.90;;;;;;6089069;23;20600;31
2022/12/18 05:02:40;;;;;;;1.88;1.88;;;-5.80;99.90;;;;;;4948856;28;20780;-65
2022/12/18 05:05:09;;;;;;;1.48;1.48;;;-5.80;99.90;;;;;;4952076;28;20219;-65
2022/12/18 05:07:35;;;;;;;1.50;1.40;;;-5.90;99.90;;;;;;4958585;28;20203;-65
2022/12/18 05:10:02;;;;;;;2.40;2.40;;;-5.90;99.90;;;;;;4959453;28;20256;-64
2022/12/18 05:12:29;;;;;;;3.30;3.13;;;-5.90;99.90;;;;;;4942005;29;20302;-64
2022/12/18 05:14:56;;;;;;;0.90;0.82;;;-5.90;99.90;;;;;;4941401;28;20207;-64
2022/12/18 05:17:22;;;;;;;2.17;1.90;;;-5.90;99.90;;;;;;4945928;28;20454;-64
2022/12/18 05:19:50;;;;;;;2.10;1.95;;;-5.90;99.90;;;;;;4939492;28;20234;-65
2022/12/18 05:22:17;;;;;;;2.55;1.52;;;-6.00;99.90;;;;;;4951228;29;20599;-65
2022/12/18 05:24:44;;;;;;;3.60;2.05;;;-6.00;99.90;;;;;;4944050;28;20216;-64
2022/12/18 05:27:10;;;;;;;2.15;2.05;;;-6.00;99.90;;;;;;4948717;29;20270;-64
2022/12/18 05:29:37;;;;;;;11.63;5.38;;;-6.00;99.90;;;;;;4946090;29;20232;-64
2022/12/18 05:32:05;;;;;;;4.13;3.75;;;-6.00;99.90;;;;;;4949469;28;20729;-64
2022/12/18 05:34:33;;;;;;;1.30;1.30;;;-6.00;99.90;;;;;;4951049;28;20657;-64
2022/12/18 05:37:01;;;;;;;1.00;1.00;;;-6.00;99.90;;;;;;4949424;28;20586;-64
2022/12/18 05:39:28;;;;;;;3.45;3.35;;;-6.00;99.90;;;;;;4948409;28;20689;-64
2022/12/18 05:41:55;;;;;;;4.78;4.68;;;-6.00;99.90;;;;;;4944479;29;20599;-64
2022/12/18 05:44:21;;;;;;;1.48;1.48;;;-6.00;99.90;;;;;;4944087;28;20226;-64
2022/12/18 05:46:48;;;;;;;1.33;1.33;;;-6.00;99.90;;;;;;4948134;28;20219;-64
2022/12/18 05:49:15;;;;;;;1.73;1.63;;;-6.00;99.90;;;;;;4941670;28;20224;-64
2022/12/18 05:51:41;;;;;;;2.25;2.25;;;-6.00;99.90;;;;;;4951473;28;20248;-64
2022/12/18 05:54:09;;;;;;;2.33;2.33;;;-6.00;99.90;;;;;;4950695;28;20244;-64
2022/12/18 05:56:36;;;;;;;1.88;1.05;;;-6.00;99.90;;;;;;4943453;28;20627;-64
2022/12/18 05:59:03;;;;;;;0.95;0.73;;;-6.00;99.90;;;;;;4951867;28;20284;-65
2022/12/18 06:01:29;;;;;;;2.22;2.22;;;-6.00;99.90;;;;;;4948352;28;20720;-64
2022/12/18 06:03:56;;;;;;;1.98;1.98;;;-6.00;99.90;;;;;;4947529;28;20210;-64
2022/12/18 06:06:25;;;;;;;1.95;1.95;;;-6.10;99.90;;;;;;4943810;28;20210;-64
2022/12/18 06:08:52;;;;;;;4.00;3.92;;;-6.10;99.90;;;;;;4944097;28;20207;-65
2022/12/18 06:11:22;;;;;;;5.40;3.63;;;-6.20;99.90;;;;;;4947658;28;20315;-65
2022/12/18 06:13:51;;;;;;;2.05;2.05;;;-6.20;99.90;;;;;;4951835;28;20212;-65
2022/12/18 06:16:18;;;;;;;3.92;3.75;;;-6.20;99.90;;;;;;4947253;28;20656;-64
2022/12/18 06:18:44;;;;;;;1.42;1.42;;;-6.20;99.90;;;;;;4933358;29;20660;-64
2022/12/18 06:21:11;;;;;;;6.15;2.50;;;-6.20;99.90;;;;;;4947884;28;20262;-64
2022/12/18 06:23:38;;;;;;;0.80;0.80;;;-6.20;99.90;;;;;;4945468;28;20210;-64
2022/12/18 06:26:06;;;;;;;1.40;1.30;;;-6.20;99.90;;;;;;4954669;29;20390;-64
2022/12/18 06:28:34;;;;;;;2.30;2.00;;;-6.20;99.90;;;;;;4952043;28;20224;-64
2022/12/18 06:31:01;;;;;;;0.95;0.95;;;-6.20;99.90;;;;;;4938804;28;20235;-65
2022/12/18 06:33:28;;;;;;;3.38;3.15;;;-6.20;99.90;;;;;;4944798;29;20207;-65
2022/12/18 06:35:55;;;;;;;1.13;1.13;;;-6.20;99.90;;;;;;4946091;28;20220;-65
2022/12/18 06:38:22;;;;;;;0.68;0.68;;;-6.20;99.90;;;;;;4949547;28;20570;-65
2022/12/18 06:40:49;;;;;;;3.15;2.67;;;-6.30;99.90;;;;;;4944410;29;20232;-65
2022/12/18 06:43:15;;;;;;;3.28;3.08;;;-6.30;99.90;;;;;;4954805;28;20213;-65
2022/12/18 06:45:43;;;;;;;2.63;2.42;;;-6.30;99.90;;;;;;4946639;28;21204;-65
2022/12/18 06:48:10;;;;;;;2.97;1.95;;;-6.30;99.90;;;;;;4954337;28;20207;-65
2022/12/18 06:50:37;;;;;;;0.82;0.82;;;-6.30;99.90;;;;;;4950202;28;20770;-65
2022/12/18 06:53:03;;;;;;;3.95;2.38;;;-6.30;99.90;;;;;;4946381;28;20210;-65
2022/12/18 06:55:30;;;;;;;5.55;2.17;;;-6.40;99.90;;;;;;4943950;29;20219;-65
2022/12/18 06:57:57;;;;;;;0.90;0.90;;;-6.40;99.90;;;;;;4946931;29;20217;-65
2022/12/18 07:00:24;;;;;;;2.97;2.80;;;-6.40;99.90;;;;;;4951473;28;20212;-65
2022/12/18 07:02:52;;;;;;;2.20;2.17;;;-6.40;99.90;;;;;;4953432;28;20231;-65
2022/12/18 07:05:19;;;;;;;0.20;0.20;;;-6.40;99.90;;;;;;4953051;28;20636;-66
2022/12/18 07:07:46;;;;;;;1.13;1.13;;;-6.40;99.90;;;;;;4954732;28;20207;-64
2022/12/18 07:10:12;;;;;;;3.08;2.92;;;-6.40;99.90;;;;;;4954464;28;20632;-65
2022/12/18 07:12:39;;;;;;;1.30;1.30;;;-6.40;99.90;;;;;;4952824;28;20589;-65
2022/12/18 07:15:07;;;;;;;2.70;2.60;;;-6.40;99.90;;;;;;4952717;28;20266;-65
2022/12/18 07:17:34;;;;;;;1.85;1.85;;;-6.30;99.90;;;;;;4945655;29;20670;-65
2022/12/18 07:20:02;;;;;;;1.08;1.05;;;-6.30;99.90;;;;;;4944569;28;20258;-65
2022/12/18 07:22:29;;;;;;;3.30;2.72;;;-6.30;99.90;;;;;;4952846;28;20573;-65
2022/12/18 07:24:56;;;;;;;2.45;2.35;;;-6.40;99.90;;;;;;4951111;28;20234;-65
2022/12/18 07:27:23;;;;;;;2.35;2.22;;;-6.40;99.90;;;;;;4944741;28;20597;-64
2022/12/18 07:29:50;;;;;;;4.00;3.72;;;-6.40;99.90;;;;;;4955112;28;20237;-64
2022/12/18 07:32:16;;;;;;;1.13;1.13;;;-6.40;99.90;;;;;;4949702;28;20851;-65
2022/12/18 07:34:43;;;;;;;0.85;0.85;;;-6.40;99.90;;;;;;4944731;28;20219;-65
2022/12/18 07:37:11;;;;;;;2.10;2.00;;;-6.40;99.90;;;;;;4952453;28;20288;-65
2022/12/18 07:39:38;;;;;;;2.58;2.45;;;-6.40;99.90;;;;;;4953226;28;20694;-65
2022/12/18 07:44:49;;;;;;;5.38;3.70;;;-6.40;99.90;;;;;;4942195;29;20346;-65
2022/12/18 07:47:16;;;;;;;2.65;2.55;;;-6.40;99.90;;;;;;4953053;28;20258;-65
2022/12/18 07:49:42;;;;;;;5.40;1.85;;;-6.40;99.90;;;;;;4942624;28;20234;-65
2022/12/18 07:52:12;;;;;;;0.85;0.85;;;-6.40;99.90;;;;;;4948316;28;20305;-65
2022/12/18 07:54:38;;;;;;;3.03;2.75;;;-6.40;99.90;;;;;;4947165;28;20322;-64
2022/12/18 07:57:05;;;;;;;5.53;5.32;;;-6.40;99.90;;;;;;4953144;29;20215;-64
2022/12/18 07:59:32;;;;;;;7.43;6.85;;;-6.40;99.90;;;;;;4949932;28;20257;-66
2022/12/18 08:01:59;;;;;;;12.15;5.55;;;-6.40;99.90;;;;;;4951590;28;20246;-65
2022/12/18 08:04:26;;;;;;;5.50;5.10;;;-6.40;99.90;;;;;;4948633;28;20208;-65
2022/12/18 08:06:53;;;;;;;1.92;1.73;;;-6.40;99.90;;;;;;4950675;29;20238;-66
2022/12/18 08:09:21;;;;;;;3.58;3.33;;;-6.40;99.90;;;;;;4952764;28;20212;-66
2022/12/18 08:11:47;;;;;;;1.23;1.23;;;-6.40;99.90;;;;;;4944992;28;20246;-66
2022/12/18 08:14:14;;;;;;;4.85;4.45;;;-6.40;99.90;;;;;;4951944;28;20246;-66
2022/12/18 08:16:41;;;;;;;3.05;2.95;;;-6.40;99.90;;;;;;4957951;28;20742;-65
2022/12/18 08:19:08;;;;;;;2.25;2.25;;;-6.30;99.90;;;;;;4951065;28;20239;-66
2022/12/18 08:21:35;;;;;;;3.58;3.38;;;-6.30;99.90;;;;;;4959478;28;20259;-65
2022/12/18 08:24:02;;;;;;;4.30;4.03;;;-6.30;99.90;;;;;;4968811;28;20233;-65
2022/12/18 08:26:32;;;;;;;2.60;2.40;;;-6.30;99.90;;;;;;4950764;28;20215;-65
2022/12/18 08:29:00;;;;;;;2.55;2.45;;;-6.30;99.90;;;;;;4948710;28;20234;-65
2022/12/18 08:31:29;;;;;;;1.50;1.15;;;-6.30;99.90;;;;;;4955908;28;20705;-65
2022/12/18 08:33:56;;;;;;;2.85;2.63;;;-6.30;99.90;;;;;;4955674;28;20247;-65
2022/12/18 08:36:24;;;;;;;1.25;1.25;;;-6.20;99.90;;;;;;4947260;28;20590;-65
2022/12/18 08:38:51;;;;;;;2.35;1.83;;;-6.20;99.90;;;;;;4947289;28;20208;-65
2022/12/18 08:41:18;;;;;;;0.90;0.90;;;-6.20;99.90;;;;;;4954069;28;20301;-65
2022/12/18 08:46:35;;;;;;;1.42;1.42;;;-6.10;99.90;;;;;;4944419;28;20216;-65
2022/12/18 08:49:02;;;;;;;26.55;3.78;;;-6.10;99.90;;;;;;4940853;28;20215;-64
2022/12/18 08:51:28;;;;;;;1.55;1.55;;;-6.00;99.90;;;;;;4941302;28;20236;-66
2022/12/18 08:53:55;;;;;;;1.63;1.60;;;-6.00;99.90;;;;;;4943554;28;20212;-64
2022/12/18 08:56:22;;;;;;;2.30;1.60;;;-5.90;99.90;;;;;;4951916;28;20275;-65
2022/12/18 08:58:52;;;;;;;2.40;2.40;;;-5.90;99.90;;;;;;4956213;28;20589;-65
2022/12/18 09:01:19;;;;;;;2.00;2.00;;;-5.80;99.90;;;;;;4950819;28;20231;-65
2022/12/18 09:03:45;;;;;;;4.03;3.83;;;-5.80;99.90;;;;;;4943180;28;20607;-65
2022/12/18 09:06:15;;;;;;;4.43;4.22;;;-5.80;99.90;;;;;;4953638;28;20294;-65
2022/12/18 09:08:42;;;;;;;3.85;3.75;;;-5.70;99.90;;;;;;4943238;28;20291;-65
2022/12/18 09:11:14;;;;;;;0.88;0.57;;;-5.70;99.90;;;;;;4938862;28;20236;-65
2022/12/18 09:13:41;;;;;;;0.73;0.73;;;-5.60;99.90;;;;;;4943496;28;20204;-65
2022/12/18 09:16:09;;;;;;;2.92;2.80;;;-5.60;99.90;;;;;;4943330;28;20219;-65
2022/12/18 09:18:36;;;;;;;1.83;1.83;;;-5.50;99.90;;;;;;4944267;28;20285;-65
2022/12/18 09:21:09;;;;;;;2.85;2.67;;;-5.50;99.90;;;;;;4942419;28;20236;-65
2022/12/18 09:23:36;;;;;;;1.13;1.13;;;-5.50;99.90;;;;;;4934357;28;20614;-65
2022/12/18 09:26:03;;;;;;;5.63;5.22;;;-5.40;99.90;;;;;;4948186;28;20235;-65
2022/12/18 09:28:29;;;;;;;1.15;1.15;;;-5.40;99.90;;;;;;4940461;28;20216;-65
2022/12/18 09:30:56;;;;;;;3.05;1.90;;;-5.30;99.90;;;;;;4943174;28;20242;-64
2022/12/18 09:33:24;;;;;;;3.92;3.65;;;-5.30;99.90;;;;;;4938832;28;20229;-66
2022/12/18 09:35:51;;;;;;;1.33;1.33;;;-5.30;99.90;;;;;;4949404;28;20770;-66
2022/12/18 09:38:19;;;;;;;8.18;2.83;;;-5.30;99.90;;;;;;4935586;28;20213;-66
2022/12/18 09:40:49;;;;;;;2.58;2.45;;;-5.20;99.90;;;;;;4949025;29;20290;-66
2022/12/18 09:43:19;;;;;;;1.92;1.92;;;-5.20;99.90;;;;;;4945676;28;20349;-65
2022/12/18 09:45:50;;;;;;;2.88;2.67;;;-5.20;99.90;;;;;;4944961;28;20216;-66
2022/12/18 09:48:22;;;;;;;3.95;3.85;;;-5.10;99.90;;;;;;4946956;28;20684;-66
2022/12/18 09:50:52;;;;;;;3.70;3.47;;;-5.00;99.90;;;;;;4946033;28;20240;-63
2022/12/18 09:53:23;;;;;;;4.80;4.40;;;-5.00;99.90;;;;;;4935834;28;20239;-64
2022/12/18 09:55:51;;;;;;;5.80;1.58;;;-4.90;99.90;;;;;;4939565;28;20223;-64
2022/12/18 09:58:26;;;;;;;3.10;2.97;;;-4.80;99.90;;;;;;4940024;28;20246;-65
2022/12/18 10:00:53;;;;;;;5.75;5.38;;;-4.80;99.90;;;;;;4932678;29;20236;-66
2022/12/18 10:03:20;;;;;;;2.40;2.30;;;-4.70;99.90;;;;;;4937908;28;20224;-66
2022/12/18 10:05:56;;;;;;;9.07;4.68;;;-4.60;99.90;;;;;;4952477;28;20283;-66
2022/12/18 10:08:31;;;;;;;2.22;2.22;;;-4.50;99.90;;;;;;4939386;28;20224;-66
2022/12/18 10:11:04;;;;;;;2.90;2.80;;;-4.50;99.90;;;;;;4936689;28;20231;-66
2022/12/18 10:13:37;;;;;;;1.77;1.45;;;-4.40;99.90;;;;;;4934348;28;20215;-65
2022/12/18 10:16:11;;;;;;;6.15;5.85;;;-4.30;99.90;;;;;;4940371;28;20216;-66
2022/12/18 10:18:59;;;;;;;1.90;1.70;;;-4.30;99.90;;;;;;4936010;28;20209;-66
2022/12/18 10:21:33;;;;;;;7.32;4.70;;;-4.20;99.90;;;;;;4931101;28;20607;-66
2022/12/18 10:24:11;;;;;;;4.55;4.25;;;-4.20;99.90;;;;;;4942183;28;20688;-66
2022/12/18 10:26:38;;;;;;;1.23;1.20;;;-4.10;99.90;;;;;;4938508;28;20270;-66
2022/12/18 10:29:11;;;;;;;4.97;2.38;;;-4.00;99.90;;;;;;4935816;29;20215;-66
2022/12/18 10:31:38;;;;;;;5.18;4.78;;;-3.90;99.90;;;;;;4948078;28;20248;-66
2022/12/18 10:34:05;;;;;;;2.78;2.70;;;-3.80;99.90;;;;;;4935173;29;20713;-67
2022/12/18 10:36:33;;;;;;;6.72;2.75;;;-3.80;99.90;;;;;;4948003;28;20224;-66
2022/12/18 10:39:16;;;;;;;3.65;3.55;;;-3.70;99.90;;;;;;4942776;29;20216;-66
2022/12/18 10:41:43;;;;;;;4.65;4.32;;;-3.60;99.90;;;;;;4946526;28;20227;-66
2022/12/18 10:44:15;;;;;;;1.67;1.67;;;-3.50;99.90;;;;;;4948078;28;20212;-66
2022/12/18 10:46:42;;;;;;;6.97;6.28;;;-3.50;99.90;;;;;;4938839;28;20637;-66
2022/12/18 10:49:20;;;;;;;2.60;2.40;;;-3.40;99.90;;;;;;4947886;28;20585;-66
2022/12/18 10:51:49;;;;;;;2.78;2.67;;;-3.40;99.90;;;;;;4945228;28;20264;-66
2022/12/18 10:54:17;;;;;;;4.50;3.13;;;-3.40;99.90;;;;;;4937658;28;20667;-66
2022/12/18 10:56:45;;;;;;;26.75;5.35;;;-3.30;99.90;;;;;;4932893;28;20536;-66
2022/12/18 10:59:14;;;;;;;1.38;1.38;;;-3.30;99.90;;;;;;4933682;28;20208;-66
2022/12/18 11:01:52;;;;;;;5.43;4.93;;;-3.30;99.90;;;;;;4942521;28;20249;-66
2022/12/18 11:04:21;;;;;;;4.70;4.38;;;-3.20;99.90;;;;;;4938760;28;20223;-66
2022/12/18 11:07:10;;;;;;;11.45;4.38;;;-3.20;99.90;;;;;;4938731;28;20212;-66
2022/12/18 11:09:39;;;;;;;3.22;1.20;;;-3.10;99.90;;;;;;4937966;28;20796;-66
2022/12/18 11:12:17;;;;;;;3.17;3.03;;;-3.10;99.90;;;;;;4948485;28;20258;-66
2022/12/18 11:14:47;;;;;;;6.72;5.40;;;-3.00;99.90;;;;;;4935617;28;20244;-66
2022/12/18 11:17:20;;;;;;;3.97;3.88;;;-3.00;99.90;;;;;;4937761;28;20215;-64
2022/12/18 11:19:53;;;;;;;3.40;3.20;;;-2.90;99.90;;;;;;4936514;28;20214;-63
2022/12/18 11:22:26;;;;;;;2.00;2.00;;;-2.90;99.90;;;;;;4937171;28;20238;-64
2022/12/18 11:24:55;;;;;;;3.13;2.60;;;-2.80;99.90;;;;;;4945405;28;20300;-65
2022/12/18 11:27:22;;;;;;;2.60;2.50;;;-2.80;99.90;;;;;;4952383;28;20684;-64
2022/12/18 11:29:51;;;;;;;11.93;4.07;;;-2.80;99.90;;;;;;4949988;28;20223;-65
2022/12/18 11:32:27;;;;;;;6.70;6.13;;;-2.70;99.90;;;;;;4951720;28;20233;-65
2022/12/18 11:35:00;;;;;;;4.18;3.75;;;-2.70;99.90;;;;;;4939897;28;20211;-65
2022/12/18 11:37:28;;;;;;;6.28;5.75;;;-2.60;99.90;;;;;;4944581;28;20218;-65
2022/12/18 11:39:59;;;;;;;3.75;3.65;;;-2.60;99.90;;;;;;4947088;29;20213;-65
2022/12/18 11:42:33;;;;;;;4.32;2.67;;;-2.50;99.90;;;;;;4944920;28;20233;-65
2022/12/18 11:45:06;;;;;;;3.65;3.15;;;-2.50;99.90;;;;;;4948266;28;20275;-64
2022/12/18 11:47:41;;;;;;;2.80;2.58;;;-2.50;99.90;;;;;;4941780;28;20285;-65
2022/12/18 11:50:18;;;;;;;3.83;3.72;;;-2.50;99.90;;;;;;4947145;28;20629;-65
2022/12/18 11:52:46;;;;;;;1.30;1.30;;;-2.40;99.90;;;;;;4950173;28;20241;-65
2022/12/18 11:55:15;;;;;;;4.43;2.70;;;-2.30;99.90;;;;;;4951212;28;20209;-65
2022/12/18 11:57:51;;;;;;;1.60;1.60;;;-2.30;99.90;;;;;;4941808;28;20207;-67
2022/12/18 12:00:21;;;;;;;2.67;2.58;;;-2.20;99.90;;;;;;4954164;29;20569;-66
2022/12/18 12:03:26;;;;;;;5.38;2.13;;;-2.20;99.90;;;;;;4940468;28;20754;-66
2022/12/18 12:06:04;;;;;;;3.47;3.17;;;-2.10;99.90;;;;;;4954168;28;20285;-66
2022/12/18 12:08:46;;;;;;;3.05;2.95;;;-2.10;99.90;;;;;;4947681;28;20228;-66
2022/12/18 12:11:21;;;;;;;1.35;1.35;;;-2.10;99.90;;;;;;4946659;28;20226;-66
2022/12/18 12:13:58;;;;;;;4.78;1.88;;;-2.00;99.90;;;;;;4935040;28;20666;-66
2022/12/18 12:16:35;;;;;;;5.97;3.67;;;-2.00;99.90;;;;;;4945590;29;20656;-66
2022/12/18 12:19:16;;;;;;;2.20;2.20;;;-2.00;99.90;;;;;;4935844;28;20214;-65
2022/12/18 12:21:47;;;;;;;2.65;2.55;;;-1.90;99.90;;;;;;4948277;28;20408;-66
2022/12/18 12:24:32;;;;;;;0.65;0.65;;;-1.90;99.90;;;;;;4952635;28;20304;-65
2022/12/18 12:27:07;;;;;;;1.98;1.98;;;-1.90;99.90;;;;;;4954601;28;20211;-66
2022/12/18 12:29:45;;;;;;;3.15;2.85;;;-1.90;99.90;;;;;;4953941;28;20249;-66
2022/12/18 12:32:26;;;;;;;3.53;3.40;;;-1.90;99.90;;;;;;4949064;28;20238;-66
2022/12/18 12:35:03;;;;;;;2.60;2.28;;;-1.80;99.90;;;;;;4934714;28;20266;-66
2022/12/18 12:37:39;;;;;;;2.20;2.20;;;-1.80;99.90;;;;;;4939227;28;20276;-65
2022/12/18 12:40:12;;;;;;;2.15;2.05;;;-1.70;99.90;;;;;;4945110;28;20249;-65
2022/12/18 12:45:37;;;;;;;6.65;5.10;;;-1.70;99.90;;;;;;4938149;28;20205;-65
2022/12/18 12:48:07;;;;;;;1.45;1.33;;;-1.80;99.90;;;;;;4942702;28;20221;-66
2022/12/18 12:50:36;;;;;;;4.53;3.88;;;-1.80;99.90;;;;;;4943499;28;20337;-66
2022/12/18 12:53:08;;;;;;;4.25;4.05;;;-1.80;99.90;;;;;;4943029;28;20246;-66
2022/12/18 12:55:36;;;;;;;5.47;4.60;;;-1.80;99.90;;;;;;4937996;28;20258;-66
2022/12/18 12:58:11;;;;;;;2.90;2.70;;;-1.80;99.90;;;;;;4934284;28;20612;-65
2022/12/18 13:00:44;;;;;;;3.55;3.22;;;-1.80;99.90;;;;;;4944625;28;20291;-66
2022/12/18 13:03:21;;;;;;;1.48;1.48;;;-1.70;99.90;;;;;;4944437;28;20669;-66
2022/12/18 13:05:54;;;;;;;4.03;3.63;;;-1.80;99.90;;;;;;4951443;28;20214;-65
2022/12/18 13:08:25;;;;;;;3.92;3.63;;;-1.80;99.90;;;;;;4939710;28;20210;-65
2022/12/18 13:12:55;;;;;;;1.60;1.55;;;-1.80;99.90;;;;;;4940458;28;20239;-66
2022/12/18 13:13:58;;;;;;;1.42;1.42;;;-1.80;99.90;;;;;;4941444;28;20275;-66
2022/12/18 13:16:27;;;;;;;3.67;3.55;;;-1.80;99.90;;;;;;4942437;28;20550;-66
2022/12/18 13:18:56;;;;;;;4.47;4.28;;;-1.80;99.90;;;;;;4934223;28;20636;-65
2022/12/18 13:21:28;;;;;;;6.78;3.72;;;-1.80;99.90;;;;;;4946824;29;20750;-65
2022/12/18 13:23:55;;;;;;;3.05;3.00;;;-1.90;99.90;;;;;;4944093;28;20584;-66
2022/12/18 13:26:34;;;;;;;6.07;3.20;;;-1.80;99.90;;;;;;4945795;28;20211;-68
2022/12/18 13:29:03;;;;;;;3.40;3.22;;;-1.80;99.90;;;;;;4942155;28;20216;-69
2022/12/18 13:32:01;;;;;;;2.30;1.90;;;-1.90;99.90;;;;;;4934268;28;20245;-69
2022/12/18 13:34:30;;;;;;;7.97;5.80;;;-1.80;99.90;;;;;;4917847;29;20202;-67
2022/12/18 13:36:59;;;;;;;6.40;3.35;;;-1.80;99.90;;;;;;4950029;28;20286;-66
2022/12/18 13:39:33;;;;;;;2.03;1.90;;;-1.90;99.90;;;;;;4934044;28;20686;-66
2022/12/18 13:45:46;;;;;;;2.88;2.78;;;-1.90;99.90;;;;;;4949958;29;20217;-66
2022/12/18 13:48:25;;;;;;;2.00;1.90;;;-1.90;99.90;;;;;;4940505;28;20210;-66
2022/12/18 13:50:57;;;;;;;3.58;3.58;;;-2.00;99.90;;;;;;4946151;29;20313;-66
2022/12/18 13:53:28;;;;;;;3.80;3.50;;;-2.10;99.90;;;;;;4936103;28;20605;-66
2022/12/18 13:55:55;;;;;;;4.05;2.60;;;-2.10;99.90;;;;;;4943381;29;20215;-65
2022/12/18 13:58:23;;;;;;;4.93;4.40;;;-2.20;99.90;;;;;;4937093;28;20223;-64
2022/12/18 14:00:50;;;;;;;3.38;3.10;;;-2.20;99.90;;;;;;4938942;29;20621;-64
2022/12/18 14:03:20;;;;;;;2.53;2.38;;;-2.20;99.90;;;;;;4947498;28;20205;-64
2022/12/18 14:05:52;;;;;;;9.55;5.28;;;-2.20;99.90;;;;;;4949964;28;20694;-66
2022/12/18 14:08:19;;;;;;;1.63;1.63;;;-2.20;99.90;;;;;;4941161;28;20208;-66
2022/12/18 14:10:48;;;;;;;3.83;3.63;;;-2.30;99.90;;;;;;4944529;29;20242;-66
2022/12/18 14:13:20;;;;;;;3.80;3.17;;;-2.30;99.90;;;;;;4946772;28;20225;-66
2022/12/18 14:15:49;;;;;;;4.90;2.17;;;-2.30;99.90;;;;;;4947236;28;20705;-65
2022/12/18 14:18:22;;;;;;;1.35;1.35;;;-2.30;99.90;;;;;;4951654;28;20677;-65
2022/12/18 14:20:51;;;;;;;7.85;3.35;;;-2.40;99.90;;;;;;4949792;28;20234;-65
2022/12/18 14:23:36;;;;;;;4.00;3.55;;;-2.40;99.90;;;;;;4946264;28;20218;-65
2022/12/18 14:26:20;;;;;;;4.78;2.10;;;-2.40;99.90;;;;;;4944906;28;20320;-65
2022/12/18 14:28:48;;;;;;;1.00;1.00;;;-2.40;99.90;;;;;;4943164;28;20211;-66
2022/12/18 14:31:20;;;;;;;2.53;2.53;;;-2.40;99.90;;;;;;4943016;28;20238;-66
2022/12/18 14:33:47;;;;;;;3.58;3.38;;;-2.50;99.90;;;;;;4948861;28;20622;-65
2022/12/18 14:36:18;;;;;;;4.43;4.03;;;-2.50;99.90;;;;;;4949697;28;20265;-65
2022/12/18 14:38:50;;;;;;;5.18;4.78;;;-2.50;99.90;;;;;;4951966;28;20220;-66
2022/12/18 14:41:17;;;;;;;1.83;1.83;;;-2.50;99.90;;;;;;4951107;28;20279;-65
2022/12/18 14:43:46;;;;;;;1.10;1.10;;;-2.60;99.90;;;;;;4949380;28;20414;-65
2022/12/18 14:46:30;;;;;;;2.33;2.22;;;-2.60;99.90;;;;;;4954001;29;20213;-66
2022/12/18 14:48:58;;;;;;;3.47;3.22;;;-2.60;99.90;;;;;;4954176;28;20226;-65
2022/12/18 14:51:29;;;;;;;1.15;1.15;;;-2.60;99.90;;;;;;4954493;28;20346;-65
2022/12/18 14:53:58;;;;;;;4.80;2.72;;;-2.60;99.90;;;;;;4949548;28;20740;-65
2022/12/18 14:56:26;;;;;;;6.97;3.75;;;-2.60;99.90;;;;;;4943564;29;20302;-66
2022/12/18 14:58:56;;;;;;;1.88;1.83;;;-2.70;99.90;;;;;;4935356;29;20622;-65
2022/12/18 15:01:26;;;;;;;7.15;4.65;;;-2.70;99.90;;;;;;4949545;29;20239;-65
2022/12/18 15:03:55;;;;;;;2.80;1.67;;;-2.70;99.90;;;;;;4951381;28;20286;-65
2022/12/18 15:06:28;;;;;;;2.42;2.40;;;-2.70;99.90;;;;;;4951478;29;20205;-65
2022/12/18 15:08:55;;;;;;;0.98;0.98;;;-2.70;99.90;;;;;;4953841;29;20214;-66
2022/12/18 15:11:36;;;;;;;2.85;2.75;;;-2.70;99.90;;;;;;4953114;28;20236;-65
2022/12/18 15:14:25;;;;;;;9.73;6.03;;;-2.70;99.90;;;;;;4950829;29;20216;-65
2022/12/18 15:16:53;;;;;;;6.43;3.40;;;-2.70;99.90;;;;;;4943422;28;21158;-65
2022/12/18 15:19:24;;;;;;;4.05;3.75;;;-2.80;99.90;;;;;;4945118;28;20713;-65
2022/12/18 15:21:50;;;;;;;1.23;1.23;;;-2.70;99.90;;;;;;4946916;28;20614;-65
2022/12/18 15:24:21;;;;;;;5.05;3.95;;;-2.70;99.90;;;;;;4955397;28;20221;-66
2022/12/18 15:26:48;;;;;;;2.55;2.35;;;-2.80;99.90;;;;;;4948243;28;20247;-65
2022/12/18 15:29:25;;;;;;;1.58;1.58;;;-2.80;99.90;;;;;;4944196;29;20248;-65
2022/12/18 15:32:04;;;;;;;2.00;1.88;;;-2.80;99.90;;;;;;4954792;28;20345;-65
2022/12/18 15:34:33;;;;;;;4.32;4.00;;;-2.80;99.90;;;;;;4952703;28;20238;-65
2022/12/18 15:37:00;;;;;;;3.15;1.70;;;-2.80;99.90;;;;;;4949992;28;20231;-65
2022/12/18 15:39:27;;;;;;;3.97;3.83;;;-2.80;99.90;;;;;;4946276;28;20292;-66
2022/12/18 15:44:38;;;;;;;3.65;3.35;;;-2.80;99.90;;;;;;4953939;29;20234;-66
2022/12/18 15:47:12;;;;;;;2.67;2.58;;;-2.80;99.90;;;;;;4948170;28;20227;-65
2022/12/18 15:49:40;;;;;;;4.35;0.77;;;-2.70;99.90;;;;;;4948504;29;20615;-65
2022/12/18 15:52:12;;;;;;;3.05;2.17;;;-2.80;99.90;;;;;;4946386;28;20314;-65
2022/12/18 15:57:23;;;;;;;1.52;1.42;;;-2.70;99.90;;;;;;4942519;29;20234;-65
2022/12/18 15:59:50;;;;;;;1.55;1.45;;;-2.70;99.90;;;;;;4952107;28;20583;-66
2022/12/18 16:02:18;;;;;;;1.20;1.20;;;-2.70;99.90;;;;;;4944331;28;20238;-66
2022/12/18 16:04:46;;;;;;;5.15;2.28;;;-2.70;99.90;;;;;;4947591;28;20236;-66
2022/12/18 16:07:13;;;;;;;4.38;3.97;;;-2.70;99.90;;;;;;4953255;28;20217;-65
2022/12/18 16:09:40;;;;;;;1.33;1.23;;;-2.70;99.90;;;;;;4944827;28;20214;-66
2022/12/18 16:12:12;;;;;;;2.75;2.05;;;-2.60;99.90;;;;;;4950853;28;20238;-66
2022/12/18 16:14:38;;;;;;;8.27;2.10;;;-2.60;99.90;;;;;;4941211;28;20215;-66
2022/12/18 16:17:09;;;;;;;3.20;2.92;;;-2.60;99.90;;;;;;4944851;29;20214;-66
2022/12/18 16:19:36;;;;;;;0.32;0.32;;;-2.60;99.90;;;;;;4951287;28;20217;-66
2022/12/18 16:22:18;;;;;;;3.90;3.25;;;-2.60;99.90;;;;;;4940398;28;20237;-66
2022/12/18 16:24:45;;;;;;;4.93;1.95;;;-2.60;99.90;;;;;;4939254;28;20306;-65
2022/12/18 16:27:12;;;;;;;2.05;2.05;;;-2.60;99.90;;;;;;4935534;29;20280;-66
2022/12/18 16:29:38;;;;;;;1.85;1.33;;;-2.60;99.90;;;;;;4942383;29;20208;-65
2022/12/18 16:32:05;;;;;;;1.23;1.23;;;-2.60;99.90;;;;;;4938992;28;20299;-65
2022/12/18 16:34:34;;;;;;;2.03;2.03;;;-2.60;99.90;;;;;;4940919;28;20233;-66
2022/12/18 16:37:02;;;;;;;3.60;3.50;;;-2.60;99.90;;;;;;4942059;29;20209;-64
2022/12/18 16:39:31;;;;;;;3.80;3.50;;;-2.50;99.90;;;;;;4946708;28;20214;-66
2022/12/18 16:41:58;;;;;;;6.82;2.67;;;-2.50;99.90;;;;;;4941502;28;20676;-66
2022/12/18 16:44:25;;;;;;;2.30;2.20;;;-2.50;99.90;;;;;;4941518;28;20301;-66
2022/12/18 16:46:52;;;;;;;2.95;1.30;;;-2.50;99.90;;;;;;4940327;28;20217;-66
2022/12/18 16:49:21;;;;;;;10.95;4.50;;;-2.50;99.90;;;;;;4943740;28;20629;-66
2022/12/18 16:51:47;;;;;;;3.42;3.22;;;-2.50;99.90;;;;;;4944666;28;20231;-66
2022/12/18 16:54:14;;;;;;;4.82;4.57;;;-2.50;99.90;;;;;;4935774;29;20225;-66
2022/12/18 16:56:42;;;;;;;0.63;0.63;;;-2.50;99.90;;;;;;4943638;28;20241;-65
2022/12/18 16:59:11;;;;;;;1.67;1.67;;;-2.50;99.90;;;;;;4951113;29;20286;-66
2022/12/18 17:01:40;;;;;;;13.60;2.85;;;-2.50;99.90;;;;;;4949624;28;20391;-66
2022/12/18 17:04:07;;;;;;;2.63;2.58;;;-2.50;99.90;;;;;;4951477;28;20209;-66
2022/12/18 17:06:38;;;;;;;2.65;2.55;;;-2.50;99.90;;;;;;4948456;28;20207;-66
2022/12/18 17:09:07;;;;;;;3.08;2.97;;;-2.50;99.90;;;;;;4934036;28;20559;-66
2022/12/18 17:11:35;;;;;;;6.78;4.25;;;-2.50;99.90;;;;;;4948309;29;20297;-66
2022/12/18 17:14:08;;;;;;;1.52;1.50;;;-2.40;99.90;;;;;;4948681;29;20227;-66
2022/12/18 17:16:35;;;;;;;3.78;2.97;;;-2.40;99.90;;;;;;4950859;28;20209;-66
2022/12/18 17:19:02;;;;;;;3.50;3.28;;;-2.40;99.90;;;;;;4946004;28;20680;-66
2022/12/18 17:21:29;;;;;;;3.97;3.35;;;-2.40;99.90;;;;;;4950612;28;20234;-66
2022/12/18 17:23:55;;;;;;;6.72;3.85;;;-2.40;99.90;;;;;;4942925;28;20205;-66
2022/12/18 17:26:22;;;;;;;4.38;4.03;;;-2.40;99.90;;;;;;4945263;29;20217;-66
2022/12/18 17:28:49;;;;;;;3.20;2.90;;;-2.40;99.90;;;;;;4941884;28;20722;-66
2022/12/18 17:31:21;;;;;;;0.85;0.85;;;-2.30;99.90;;;;;;4942404;29;20264;-66
2022/12/18 17:33:48;;;;;;;2.15;2.05;;;-2.30;99.90;;;;;;4947698;29;20225;-66
2022/12/18 17:36:15;;;;;;;2.85;2.20;;;-2.30;99.90;;;;;;4951321;28;20257;-66
2022/12/18 17:38:51;;;;;;;1.17;1.17;;;-2.30;99.90;;;;;;4945275;28;20212;-66
2022/12/18 17:41:17;;;;;;;3.28;3.05;;;-2.30;99.90;;;;;;4946723;28;20329;-66
2022/12/18 17:43:50;;;;;;;2.67;2.47;;;-2.30;99.90;;;;;;4946303;28;20593;-66
2022/12/18 17:46:18;;;;;;;16.75;3.33;;;-2.20;99.90;;;;;;4942429;29;20221;-67
2022/12/18 17:48:45;;;;;;;2.17;1.20;;;-2.30;99.90;;;;;;4945640;28;20257;-66
2022/12/18 17:51:12;;;;;;;3.75;3.60;;;-2.20;99.90;;;;;;4948324;28;20222;-66
2022/12/18 17:53:39;;;;;;;3.40;2.53;;;-2.20;99.90;;;;;;4951873;28;20225;-67
2022/12/18 17:56:06;;;;;;;1.27;1.27;;;-2.20;99.90;;;;;;4935609;28;20207;-67
2022/12/18 17:58:34;;;;;;;3.95;3.72;;;-2.20;99.90;;;;;;4939477;29;20244;-67
2022/12/18 18:01:01;;;;;;;1.48;1.48;;;-2.20;99.90;;;;;;4935558;29;20238;-67
2022/12/18 18:03:29;;;;;;;2.83;2.28;;;-2.20;99.90;;;;;;4946592;28;20524;-67
2022/12/18 18:05:56;;;;;;;2.63;2.13;;;-2.20;99.90;;;;;;4956344;28;20210;-67
2022/12/18 18:08:23;;;;;;;6.38;6.00;;;-2.10;99.90;;;;;;4942897;28;20293;-67
2022/12/18 18:10:50;;;;;;;1.73;1.63;;;-2.20;99.90;;;;;;4943273;28;21833;-66
2022/12/18 18:16:05;;;;;;;0.82;0.55;;;-2.10;99.90;;;;;;4947370;29;20322;-66
2022/12/18 18:18:33;;;;;;;1.85;1.85;;;-2.10;99.90;;;;;;4949621;28;20244;-66